Time;durP1;ratioP1;P1;durP2;ratioP2;P2;SDS_P1;SDS_P2;PMS_P1;PMS_P2;Temp;Humidity;BMP_temperature;BMP_pressure;BME280_temperature;BME280_humidity;BME280_pressure;Samples;Min_cycle;Max_cycle;Signal;HPM_P1;HPM_P2
2022/09/24 00:00:43;;;;;;;4.13;2.55;;;20.00;50.50;;;;;;5067102;28;45250;-74
2022/09/24 00:03:11;;;;;;;3.20;2.85;;;20.00;50.40;;;;;;5066541;28;45633;-76
2022/09/24 00:05:38;;;;;;;2.50;2.25;;;20.00;50.40;;;;;;5066929;28;46652;-75
2022/09/24 00:08:05;;;;;;;4.15;2.60;;;20.00;50.50;;;;;;5066880;28;45238;-75
2022/09/24 00:10:37;;;;;;;2.67;2.17;;;20.00;50.50;;;;;;5071895;28;45266;-75
2022/09/24 00:13:05;;;;;;;2.67;2.30;;;20.00;50.50;;;;;;5087488;28;45309;-74
2022/09/24 00:15:36;;;;;;;2.92;2.40;;;20.00;50.50;;;;;;5087052;28;45208;-75
2022/09/24 00:18:02;;;;;;;2.75;2.50;;;20.00;50.50;;;;;;5067284;28;45279;-75
2022/09/24 00:20:30;;;;;;;3.15;2.65;;;20.00;50.60;;;;;;5067332;28;45366;-74
2022/09/24 00:22:57;;;;;;;2.65;2.30;;;20.00;50.60;;;;;;5067072;28;45203;-75
2022/09/24 00:28:09;;;;;;;2.88;2.53;;;20.00;50.50;;;;;;5063967;28;45201;-75
2022/09/24 00:30:37;;;;;;;2.60;2.40;;;19.90;50.60;;;;;;5066845;28;45328;-75
2022/09/24 00:33:04;;;;;;;2.47;2.08;;;19.90;50.50;;;;;;5066952;28;45289;-75
2022/09/24 00:35:31;;;;;;;3.17;2.05;;;19.90;50.50;;;;;;5070125;28;45475;-75
2022/09/24 00:37:58;;;;;;;2.50;2.30;;;19.90;50.50;;;;;;5086685;28;45155;-75
2022/09/24 00:40:28;;;;;;;2.47;2.25;;;19.90;50.40;;;;;;5086903;28;45264;-75
2022/09/24 00:42:54;;;;;;;3.00;2.13;;;19.90;50.60;;;;;;5087315;28;45245;-75
2022/09/24 00:45:22;;;;;;;3.55;2.50;;;19.90;50.50;;;;;;5086696;28;45316;-75
2022/09/24 00:47:49;;;;;;;2.30;2.10;;;19.90;50.60;;;;;;5086668;28;45210;-74
2022/09/24 00:50:18;;;;;;;2.58;2.00;;;19.90;50.50;;;;;;5086743;28;45364;-74
2022/09/24 00:52:48;;;;;;;2.88;2.60;;;19.90;50.40;;;;;;5087073;28;45387;-75
2022/09/24 00:55:15;;;;;;;2.20;2.00;;;19.90;50.50;;;;;;5086662;28;45370;-75
2022/09/24 00:57:42;;;;;;;2.30;2.10;;;19.90;50.60;;;;;;5085676;28;45355;-75
2022/09/24 01:00:10;;;;;;;2.20;2.00;;;19.90;50.80;;;;;;5087915;27;45277;-76
2022/09/24 01:02:39;;;;;;;2.75;2.30;;;19.90;50.80;;;;;;5090438;28;45622;-75
2022/09/24 01:05:07;;;;;;;2.63;2.30;;;19.90;50.50;;;;;;5090140;28;45335;-76
2022/09/24 01:07:34;;;;;;;2.35;2.10;;;19.90;50.50;;;;;;5090024;28;45299;-74
2022/09/24 01:10:01;;;;;;;2.50;2.30;;;19.90;50.50;;;;;;5089157;28;45199;-75
2022/09/24 01:12:30;;;;;;;3.00;2.50;;;19.90;50.50;;;;;;5069110;28;45451;-74
2022/09/24 01:15:03;;;;;;;2.63;2.17;;;19.80;50.40;;;;;;5068648;28;46397;-74
2022/09/24 01:17:34;;;;;;;2.42;2.20;;;19.80;50.50;;;;;;5068634;28;45147;-74
2022/09/24 01:20:26;;;;;;;3.00;2.50;;;19.80;50.50;;;;;;5066144;28;45266;-75
2022/09/24 01:23:03;;;;;;;2.30;2.10;;;19.80;50.50;;;;;;5068821;28;45534;-75
2022/09/24 01:25:32;;;;;;;2.72;2.53;;;19.80;50.50;;;;;;5068324;28;45666;-75
2022/09/24 01:28:06;;;;;;;3.63;2.10;;;19.90;51.10;;;;;;5068497;28;45234;-75
2022/09/24 01:30:37;;;;;;;2.63;2.05;;;19.80;51.10;;;;;;5068551;28;45123;-75
2022/09/24 01:33:04;;;;;;;2.80;2.50;;;19.80;50.60;;;;;;5068711;28;45567;-75
2022/09/24 01:35:33;;;;;;;2.83;2.15;;;19.80;50.50;;;;;;5068085;28;46430;-75
2022/09/24 01:38:02;;;;;;;2.22;2.03;;;19.80;50.40;;;;;;5067615;28;45158;-75
2022/09/24 01:40:28;;;;;;;2.40;2.20;;;19.80;50.50;;;;;;5068626;28;45268;-75
2022/09/24 01:42:57;;;;;;;2.40;2.20;;;19.80;50.60;;;;;;5068639;28;45332;-75
2022/09/24 01:45:24;;;;;;;2.22;2.05;;;19.70;50.50;;;;;;5068148;28;46489;-75
2022/09/24 01:47:52;;;;;;;2.53;2.10;;;19.80;50.60;;;;;;5068139;28;45477;-75
2022/09/24 01:50:19;;;;;;;2.50;2.30;;;19.70;50.60;;;;;;5068347;28;45236;-73
2022/09/24 01:52:50;;;;;;;2.25;2.05;;;19.70;50.40;;;;;;5068393;28;45197;-73
2022/09/24 01:55:19;;;;;;;3.13;2.13;;;19.80;50.60;;;;;;5068197;28;46360;-76
2022/09/24 01:57:46;;;;;;;2.30;2.10;;;19.80;50.50;;;;;;5068485;28;45284;-75
2022/09/24 02:00:14;;;;;;;1.90;1.80;;;19.70;50.50;;;;;;5068197;28;45182;-74
2022/09/24 02:02:44;;;;;;;2.40;2.17;;;19.70;50.60;;;;;;5067964;28;45379;-73
2022/09/24 02:05:15;;;;;;;3.67;2.45;;;19.70;50.60;;;;;;5067040;28;45238;-75
2022/09/24 02:07:45;;;;;;;2.88;2.13;;;19.70;50.60;;;;;;5067533;28;45253;-75
2022/09/24 02:10:14;;;;;;;2.17;1.90;;;19.70;51.20;;;;;;5027884;28;1130968;-75
2022/09/24 02:12:41;;;;;;;2.55;2.00;;;19.70;50.60;;;;;;5069057;28;45238;-74
2022/09/24 02:15:10;;;;;;;2.50;2.08;;;19.70;50.50;;;;;;5069001;28;45452;-75
2022/09/24 02:17:37;;;;;;;2.40;2.20;;;19.70;50.60;;;;;;5068742;28;45250;-76
2022/09/24 02:20:07;;;;;;;2.47;2.28;;;19.70;50.50;;;;;;5068857;28;45182;-74
2022/09/24 02:22:35;;;;;;;2.60;2.40;;;19.70;50.60;;;;;;5068934;28;45270;-73
2022/09/24 02:25:02;;;;;;;2.28;2.08;;;19.70;50.60;;;;;;5068352;28;45457;-74
2022/09/24 02:27:29;;;;;;;2.20;2.00;;;19.70;50.70;;;;;;5068699;28;45198;-73
2022/09/24 02:29:56;;;;;;;2.75;1.95;;;19.70;50.60;;;;;;5068615;28;45227;-73
2022/09/24 02:32:23;;;;;;;2.30;2.10;;;19.70;50.70;;;;;;5068859;28;45284;-74
2022/09/24 02:34:51;;;;;;;2.00;1.73;;;19.60;50.70;;;;;;5068219;28;45547;-75
2022/09/24 02:37:19;;;;;;;2.35;2.15;;;19.60;50.80;;;;;;5068447;28;45138;-73
2022/09/24 02:39:47;;;;;;;2.88;2.30;;;19.60;50.80;;;;;;5068587;28;45143;-73
2022/09/24 02:42:14;;;;;;;2.13;1.92;;;19.60;50.70;;;;;;5068693;28;45618;-72
2022/09/24 02:44:41;;;;;;;1.90;1.80;;;19.60;50.70;;;;;;5068229;28;46744;-73
2022/09/24 02:47:08;;;;;;;2.28;2.00;;;19.70;50.70;;;;;;5068316;28;45251;-74
2022/09/24 02:49:34;;;;;;;1.88;1.63;;;19.70;50.70;;;;;;5068445;28;45210;-73
2022/09/24 02:52:02;;;;;;;2.70;1.88;;;19.70;50.80;;;;;;5068256;28;45255;-73
2022/09/24 02:54:28;;;;;;;2.38;2.17;;;19.60;50.70;;;;;;5067339;28;45249;-73
2022/09/24 02:56:57;;;;;;;2.28;2.08;;;19.60;50.90;;;;;;5067979;28;45277;-75
2022/09/24 02:59:23;;;;;;;2.10;1.90;;;19.70;50.90;;;;;;5068118;28;45260;-74
2022/09/24 03:01:50;;;;;;;2.28;2.08;;;19.60;50.80;;;;;;5068446;28;45177;-75
2022/09/24 03:04:17;;;;;;;2.40;2.20;;;19.70;50.90;;;;;;5067906;28;46303;-73
2022/09/24 03:06:44;;;;;;;2.10;2.00;;;19.60;50.80;;;;;;5067939;28;45324;-73
2022/09/24 03:09:11;;;;;;;1.85;1.75;;;19.60;50.80;;;;;;5068141;28;45315;-73
2022/09/24 03:11:38;;;;;;;2.15;1.95;;;19.60;50.80;;;;;;5067749;28;45131;-75
2022/09/24 03:14:07;;;;;;;2.00;1.80;;;19.60;50.80;;;;;;5067546;28;45225;-74
2022/09/24 03:16:33;;;;;;;2.30;2.00;;;19.60;50.80;;;;;;5067532;28;45285;-73
2022/09/24 03:19:00;;;;;;;2.20;2.00;;;19.60;50.80;;;;;;5067653;28;45329;-73
2022/09/24 03:21:27;;;;;;;2.35;1.90;;;19.60;51.00;;;;;;5068033;28;45416;-73
2022/09/24 03:23:54;;;;;;;2.17;1.90;;;19.60;51.00;;;;;;5066465;28;45145;-75
2022/09/24 03:26:21;;;;;;;1.70;1.60;;;19.60;51.00;;;;;;5067648;28;45136;-75
2022/09/24 03:28:47;;;;;;;2.22;2.03;;;19.60;51.10;;;;;;5067533;28;45362;-75
2022/09/24 03:31:15;;;;;;;2.88;2.00;;;19.60;51.00;;;;;;5067533;28;45409;-73
2022/09/24 03:33:42;;;;;;;3.10;1.50;;;19.60;51.00;;;;;;5067307;28;46346;-73
2022/09/24 03:36:10;;;;;;;1.75;1.65;;;19.60;51.10;;;;;;5067009;28;45139;-73
2022/09/24 03:38:38;;;;;;;1.75;1.65;;;19.60;51.10;;;;;;5066956;28;45363;-73
2022/09/24 03:41:05;;;;;;;2.15;1.95;;;19.60;51.70;;;;;;5067653;28;45319;-74
2022/09/24 03:43:32;;;;;;;1.83;1.73;;;19.60;51.10;;;;;;5067366;28;45303;-73
2022/09/24 03:45:59;;;;;;;2.08;1.67;;;19.60;51.00;;;;;;5067232;28;45219;-73
2022/09/24 03:48:28;;;;;;;1.77;1.67;;;19.60;51.10;;;;;;5067337;28;45207;-72
2022/09/24 03:50:55;;;;;;;2.20;2.00;;;19.60;51.20;;;;;;5067505;28;45309;-73
2022/09/24 03:53:22;;;;;;;2.10;1.90;;;19.60;51.10;;;;;;5067119;28;47317;-74
2022/09/24 03:55:52;;;;;;;2.30;1.95;;;19.60;51.10;;;;;;5067218;28;45146;-74
2022/09/24 03:58:19;;;;;;;2.25;1.88;;;19.50;51.20;;;;;;5067078;28;45399;-73
2022/09/24 04:00:46;;;;;;;1.88;1.67;;;19.60;51.10;;;;;;5067308;28;45248;-74
2022/09/24 04:03:13;;;;;;;2.00;1.80;;;19.50;51.10;;;;;;5066736;28;45191;-73
2022/09/24 04:05:42;;;;;;;2.03;1.70;;;19.60;51.10;;;;;;5066868;28;45163;-74
2022/09/24 04:08:09;;;;;;;1.85;1.70;;;19.50;51.10;;;;;;5067053;28;45253;-74
2022/09/24 04:10:35;;;;;;;1.90;1.80;;;19.50;51.10;;;;;;5064688;28;45298;-74
2022/09/24 04:13:02;;;;;;;1.88;1.77;;;19.50;51.30;;;;;;5066677;28;45494;-74
2022/09/24 04:15:29;;;;;;;1.55;1.45;;;19.50;51.20;;;;;;5066580;28;45262;-74
2022/09/24 04:17:57;;;;;;;1.80;1.60;;;19.50;51.20;;;;;;5066839;28;45151;-73
2022/09/24 04:20:25;;;;;;;1.75;1.65;;;19.50;51.20;;;;;;5066972;28;45253;-74
2022/09/24 04:22:55;;;;;;;1.75;1.50;;;19.50;51.10;;;;;;5066007;28;46376;-73
2022/09/24 04:25:22;;;;;;;1.85;1.75;;;19.50;51.20;;;;;;5065917;28;45296;-73
2022/09/24 04:27:52;;;;;;;1.70;1.60;;;19.50;51.10;;;;;;5066752;28;45277;-74
2022/09/24 04:30:19;;;;;;;1.80;1.70;;;19.50;51.10;;;;;;5066811;28;45440;-73
2022/09/24 04:32:46;;;;;;;1.70;1.60;;;19.50;51.10;;;;;;5066400;28;45235;-74
2022/09/24 04:35:13;;;;;;;2.00;1.80;;;19.50;51.10;;;;;;5066174;28;45234;-74
2022/09/24 04:37:40;;;;;;;1.70;1.60;;;19.50;51.20;;;;;;5066530;28;45302;-74
2022/09/24 04:40:11;;;;;;;1.52;1.42;;;19.50;51.20;;;;;;5066668;28;45189;-74
2022/09/24 04:42:38;;;;;;;1.80;1.52;;;19.50;51.20;;;;;;5066269;28;46653;-73
2022/09/24 04:45:06;;;;;;;1.65;1.50;;;19.50;51.20;;;;;;5066254;28;45311;-74
2022/09/24 04:47:33;;;;;;;1.27;1.25;;;19.50;51.30;;;;;;5066562;28;45189;-73
2022/09/24 04:50:01;;;;;;;1.58;1.48;;;19.50;51.10;;;;;;5066589;28;45198;-74
2022/09/24 04:52:28;;;;;;;1.60;1.50;;;19.50;51.30;;;;;;5066088;28;46497;-73
2022/09/24 04:54:56;;;;;;;1.70;1.60;;;19.50;51.20;;;;;;5066502;28;45454;-73
2022/09/24 04:57:25;;;;;;;1.60;1.50;;;19.50;51.10;;;;;;5066217;28;45244;-74
2022/09/24 04:59:51;;;;;;;1.73;1.63;;;19.50;51.20;;;;;;5066533;28;45447;-73
2022/09/24 05:02:18;;;;;;;1.63;1.52;;;19.40;51.30;;;;;;5065896;28;46499;-73
2022/09/24 05:04:45;;;;;;;1.50;1.40;;;19.40;51.30;;;;;;5066061;28;45412;-73
2022/09/24 05:07:12;;;;;;;1.70;1.55;;;19.50;51.30;;;;;;5066314;28;45279;-73
2022/09/24 05:09:39;;;;;;;1.50;1.40;;;19.50;51.20;;;;;;5066593;28;45341;-73
2022/09/24 05:12:06;;;;;;;1.55;1.45;;;19.50;51.20;;;;;;5065081;28;45303;-74
2022/09/24 05:14:34;;;;;;;1.55;1.45;;;19.40;51.20;;;;;;5065921;28;45265;-73
2022/09/24 05:17:01;;;;;;;1.50;1.40;;;19.50;51.30;;;;;;5065975;28;45457;-74
2022/09/24 05:19:27;;;;;;;1.60;1.50;;;19.40;51.30;;;;;;5066119;28;45227;-74
2022/09/24 05:21:54;;;;;;;1.60;1.50;;;19.40;51.20;;;;;;5065748;28;45139;-74
2022/09/24 05:24:21;;;;;;;1.50;1.33;;;19.40;51.20;;;;;;5065871;28;45142;-74
2022/09/24 05:29:34;;;;;;;1.30;1.20;;;19.40;51.60;;;;;;5063610;28;45312;-74
2022/09/24 05:32:04;;;;;;;1.40;1.30;;;19.40;51.20;;;;;;5065726;28;45269;-73
2022/09/24 05:34:31;;;;;;;1.52;1.42;;;19.40;51.10;;;;;;5065984;28;45145;-73
2022/09/24 05:36:58;;;;;;;1.67;1.38;;;19.40;51.00;;;;;;5065906;28;45235;-73
2022/09/24 05:39:25;;;;;;;1.70;1.60;;;19.40;51.10;;;;;;5066025;28;45272;-74
2022/09/24 05:41:52;;;;;;;1.40;1.30;;;19.40;51.10;;;;;;5065398;28;45329;-73
2022/09/24 05:44:20;;;;;;;1.50;1.40;;;19.40;51.00;;;;;;5065570;28;45251;-74
2022/09/24 05:46:48;;;;;;;1.88;1.33;;;19.40;51.00;;;;;;5067862;28;45395;-73
2022/09/24 05:49:15;;;;;;;2.92;1.33;;;19.40;51.00;;;;;;5069572;28;45225;-74
2022/09/24 05:51:42;;;;;;;1.20;1.20;;;19.40;51.00;;;;;;5069092;28;46373;-74
2022/09/24 05:54:09;;;;;;;1.60;1.50;;;19.40;51.00;;;;;;5068952;28;45139;-74
2022/09/24 05:56:36;;;;;;;1.45;1.35;;;19.40;50.90;;;;;;5069080;28;45237;-74
2022/09/24 05:59:03;;;;;;;1.40;1.30;;;19.40;50.90;;;;;;5069209;28;45281;-73
2022/09/24 06:01:30;;;;;;;1.80;1.70;;;19.40;50.90;;;;;;5068127;28;45288;-73
2022/09/24 06:03:58;;;;;;;1.40;1.30;;;19.40;50.90;;;;;;5068758;28;45319;-74
2022/09/24 06:06:25;;;;;;;1.48;1.38;;;19.40;51.00;;;;;;5069202;28;45189;-74
2022/09/24 06:08:52;;;;;;;1.25;1.17;;;19.40;51.00;;;;;;5068943;28;45404;-74
2022/09/24 06:11:19;;;;;;;1.40;1.30;;;19.40;51.00;;;;;;5068642;28;45466;-74
2022/09/24 06:13:46;;;;;;;1.77;1.35;;;19.40;51.10;;;;;;5068652;28;45340;-74
2022/09/24 06:16:13;;;;;;;1.35;1.25;;;19.30;51.00;;;;;;5068730;28;45212;-73
2022/09/24 06:18:41;;;;;;;1.55;1.45;;;19.30;51.10;;;;;;5068755;28;45514;-73
2022/09/24 06:21:10;;;;;;;1.92;1.42;;;19.40;51.10;;;;;;5068455;28;46664;-74
2022/09/24 06:23:37;;;;;;;1.20;1.20;;;19.40;51.10;;;;;;5068571;28;45196;-74
2022/09/24 06:26:06;;;;;;;1.25;1.15;;;19.40;51.10;;;;;;5068665;28;45140;-73
2022/09/24 06:28:33;;;;;;;1.40;1.30;;;19.40;51.10;;;;;;5068644;28;45292;-73
2022/09/24 06:31:00;;;;;;;1.40;1.30;;;19.40;51.70;;;;;;5068309;28;45352;-74
2022/09/24 06:33:27;;;;;;;1.38;1.27;;;19.40;51.10;;;;;;5068386;28;45328;-74
2022/09/24 06:35:54;;;;;;;1.65;1.55;;;19.40;51.10;;;;;;5068476;28;45264;-73
2022/09/24 06:38:22;;;;;;;1.40;1.30;;;19.40;51.00;;;;;;5068751;28;45400;-74
2022/09/24 06:40:49;;;;;;;1.33;1.23;;;19.40;51.10;;;;;;5068320;28;45477;-73
2022/09/24 06:43:16;;;;;;;1.40;1.30;;;19.40;51.20;;;;;;5068262;28;45363;-74
2022/09/24 06:45:43;;;;;;;1.75;1.65;;;19.40;51.10;;;;;;5068195;28;45198;-72
2022/09/24 06:48:11;;;;;;;1.30;1.20;;;19.40;51.20;;;;;;5068090;28;45368;-74
2022/09/24 06:50:39;;;;;;;1.52;1.42;;;19.40;51.00;;;;;;5068232;28;45340;-74
2022/09/24 06:53:06;;;;;;;1.30;1.20;;;19.40;51.10;;;;;;5068092;28;45284;-74
2022/09/24 06:55:35;;;;;;;1.50;1.20;;;19.40;51.10;;;;;;5068146;28;45277;-74
2022/09/24 06:58:03;;;;;;;1.40;1.30;;;19.40;51.10;;;;;;5067139;28;45475;-74
2022/09/24 07:00:29;;;;;;;1.30;1.20;;;19.40;51.10;;;;;;5067769;28;46627;-74
2022/09/24 07:02:56;;;;;;;1.63;1.20;;;19.40;51.00;;;;;;5067953;28;45261;-74
2022/09/24 07:05:23;;;;;;;2.08;1.40;;;19.40;51.10;;;;;;5067951;28;45282;-74
2022/09/24 07:07:50;;;;;;;1.38;1.27;;;19.40;51.10;;;;;;5068144;28;45126;-74
2022/09/24 07:10:17;;;;;;;2.10;1.23;;;19.40;51.10;;;;;;5067350;28;45448;-74
2022/09/24 07:12:45;;;;;;;1.50;1.40;;;19.40;51.10;;;;;;5067724;28;45249;-74
2022/09/24 07:15:12;;;;;;;2.13;1.40;;;19.40;51.10;;;;;;5067920;28;45401;-74
2022/09/24 07:17:39;;;;;;;1.27;1.20;;;19.40;51.00;;;;;;5067891;28;45243;-74
2022/09/24 07:20:06;;;;;;;1.65;1.40;;;19.40;51.10;;;;;;5067494;28;47315;-73
2022/09/24 07:22:37;;;;;;;1.20;1.10;;;19.40;51.20;;;;;;5067617;28;45284;-73
2022/09/24 07:25:06;;;;;;;1.20;1.20;;;19.40;51.10;;;;;;5067535;28;45213;-74
2022/09/24 07:27:33;;;;;;;1.63;1.40;;;19.40;51.20;;;;;;5067730;28;45238;-73
2022/09/24 07:30:01;;;;;;;1.08;1.08;;;19.40;51.20;;;;;;5067362;28;45309;-73
2022/09/24 07:32:29;;;;;;;1.23;1.13;;;19.40;51.20;;;;;;5067351;28;45245;-72
2022/09/24 07:34:55;;;;;;;1.38;1.27;;;19.40;51.20;;;;;;5066811;28;45259;-74
2022/09/24 07:37:22;;;;;;;1.50;1.40;;;19.40;51.20;;;;;;5067551;28;45256;-74
2022/09/24 07:39:49;;;;;;;1.50;1.40;;;19.40;51.20;;;;;;5067322;28;45343;-74
2022/09/24 07:42:16;;;;;;;1.23;1.17;;;19.40;51.10;;;;;;5067191;28;45343;-74
2022/09/24 07:44:43;;;;;;;2.13;1.20;;;19.40;51.20;;;;;;5067329;28;45181;-74
2022/09/24 07:47:11;;;;;;;2.53;1.30;;;19.40;51.20;;;;;;5067748;28;45396;-74
2022/09/24 07:49:38;;;;;;;1.20;1.10;;;19.40;51.20;;;;;;5067234;28;46393;-74
2022/09/24 07:52:05;;;;;;;0.90;0.90;;;19.40;51.20;;;;;;5067522;28;45346;-74
2022/09/24 07:54:32;;;;;;;1.20;1.10;;;19.40;51.20;;;;;;5067241;28;45355;-74
2022/09/24 07:57:00;;;;;;;1.70;1.38;;;19.40;51.20;;;;;;5067448;28;45169;-74
2022/09/24 07:59:27;;;;;;;0.98;0.98;;;19.40;51.20;;;;;;5066716;28;45521;-74
2022/09/24 08:01:53;;;;;;;0.90;0.90;;;19.40;51.20;;;;;;5066993;28;45420;-73
2022/09/24 08:04:22;;;;;;;1.17;1.15;;;19.40;51.20;;;;;;5067054;28;45265;-74
2022/09/24 08:06:51;;;;;;;1.40;1.30;;;19.40;51.30;;;;;;5067407;28;45221;-74
2022/09/24 08:09:18;;;;;;;1.90;1.35;;;19.50;51.30;;;;;;5066346;28;45344;-74
2022/09/24 08:11:45;;;;;;;1.75;1.40;;;19.40;51.20;;;;;;5066526;28;45360;-74
2022/09/24 08:14:12;;;;;;;1.20;1.10;;;19.50;51.20;;;;;;5066731;28;45421;-74
2022/09/24 08:16:40;;;;;;;1.58;1.40;;;19.50;51.20;;;;;;5066873;28;45267;-73
2022/09/24 08:19:12;;;;;;;1.20;1.10;;;19.50;51.20;;;;;;5065975;28;46374;-74
2022/09/24 08:21:40;;;;;;;1.30;1.20;;;19.50;51.20;;;;;;5066167;28;45198;-74
2022/09/24 08:24:07;;;;;;;1.00;1.00;;;19.50;51.20;;;;;;5066825;28;45302;-73
2022/09/24 08:26:34;;;;;;;1.20;1.10;;;19.50;51.20;;;;;;5066991;28;45292;-74
2022/09/24 08:29:01;;;;;;;1.52;1.17;;;19.50;51.20;;;;;;5066420;28;46417;-74
2022/09/24 08:31:27;;;;;;;1.23;1.13;;;19.50;51.20;;;;;;5066725;28;45308;-74
2022/09/24 08:33:54;;;;;;;1.50;1.40;;;19.50;51.10;;;;;;5065981;28;45446;-74
2022/09/24 08:36:21;;;;;;;1.20;1.10;;;19.50;51.20;;;;;;5065882;28;45478;-74
2022/09/24 08:38:49;;;;;;;1.23;1.15;;;19.50;51.10;;;;;;5061420;28;45373;-74
2022/09/24 08:41:25;;;;;;;1.30;1.20;;;19.50;51.10;;;;;;5064864;28;45447;-74
2022/09/24 08:43:55;;;;;;;1.05;1.05;;;19.50;51.10;;;;;;5076370;28;45446;-75
2022/09/24 08:49:09;;;;;;;1.30;1.20;;;19.50;51.20;;;;;;5047305;28;45404;-74
2022/09/24 08:51:39;;;;;;;1.55;1.20;;;19.50;51.20;;;;;;5066048;28;45396;-74
2022/09/24 08:54:09;;;;;;;1.55;1.30;;;19.50;51.10;;;;;;5066316;28;45267;-74
2022/09/24 08:56:37;;;;;;;1.48;1.38;;;19.60;51.30;;;;;;5080835;28;45353;-74
2022/09/24 08:59:09;;;;;;;1.40;1.30;;;19.60;51.20;;;;;;5048788;28;46456;-74
2022/09/24 09:01:38;;;;;;;1.50;1.27;;;19.60;51.30;;;;;;5064481;28;45320;-74
2022/09/24 09:04:12;;;;;;;1.10;1.10;;;19.60;51.30;;;;;;5056657;28;45172;-76
2022/09/24 09:06:53;;;;;;;1.95;1.30;;;19.60;51.30;;;;;;5054766;28;45407;-74
2022/09/24 09:09:22;;;;;;;1.17;1.08;;;19.60;51.20;;;;;;5051220;28;45721;-75
2022/09/24 09:11:51;;;;;;;2.08;1.10;;;19.60;51.20;;;;;;5065397;28;45622;-74
2022/09/24 09:14:19;;;;;;;1.13;1.10;;;19.70;51.20;;;;;;5065021;28;45340;-75
2022/09/24 09:16:49;;;;;;;1.30;1.20;;;19.70;51.20;;;;;;5066323;28;45411;-75
2022/09/24 09:19:16;;;;;;;1.52;1.30;;;19.70;51.10;;;;;;5065658;28;45301;-74
2022/09/24 09:21:45;;;;;;;2.13;1.50;;;19.70;51.10;;;;;;5067840;28;45131;-74
2022/09/24 09:24:15;;;;;;;1.25;1.17;;;19.70;51.10;;;;;;5069503;28;45340;-75
2022/09/24 09:26:43;;;;;;;1.58;1.20;;;19.70;51.20;;;;;;5062731;28;45428;-74
2022/09/24 09:29:10;;;;;;;1.10;1.10;;;19.70;51.10;;;;;;5048765;28;46385;-74
2022/09/24 09:31:42;;;;;;;1.27;1.17;;;19.80;51.30;;;;;;5049330;28;45322;-74
2022/09/24 09:34:28;;;;;;;1.33;1.23;;;19.80;51.20;;;;;;5054712;28;45376;-74
2022/09/24 09:37:01;;;;;;;1.40;1.27;;;19.80;51.30;;;;;;5069150;28;45300;-74
2022/09/24 09:39:36;;;;;;;1.10;1.10;;;19.80;51.30;;;;;;5068797;28;46883;-74
2022/09/24 09:42:14;;;;;;;1.25;1.25;;;19.80;51.20;;;;;;5067811;28;45278;-74
2022/09/24 09:44:42;;;;;;;1.08;1.08;;;19.80;51.10;;;;;;5069053;28;45293;-74
2022/09/24 09:47:16;;;;;;;1.45;1.35;;;19.80;51.10;;;;;;5069366;28;45412;-75
2022/09/24 09:49:42;;;;;;;1.20;1.10;;;19.90;51.20;;;;;;5068732;28;46557;-73
2022/09/24 09:52:14;;;;;;;1.30;1.20;;;19.90;51.00;;;;;;5069078;28;45229;-74
2022/09/24 09:54:42;;;;;;;1.60;1.50;;;19.90;51.00;;;;;;5069059;28;45344;-75
2022/09/24 09:57:13;;;;;;;1.33;1.23;;;19.90;51.50;;;;;;5069298;28;45234;-75
2022/09/24 09:59:40;;;;;;;1.52;1.42;;;20.00;51.00;;;;;;5068757;28;45238;-73
2022/09/24 10:02:10;;;;;;;1.58;1.30;;;20.00;50.90;;;;;;5068130;28;45322;-74
2022/09/24 10:04:38;;;;;;;1.38;1.27;;;20.00;51.00;;;;;;5068655;28;45347;-75
2022/09/24 10:07:06;;;;;;;1.40;1.30;;;20.00;51.00;;;;;;5067999;28;45380;-74
2022/09/24 10:09:33;;;;;;;1.77;1.20;;;20.00;51.00;;;;;;5064388;28;46326;-75
2022/09/24 10:12:07;;;;;;;2.10;1.63;;;20.00;51.00;;;;;;5081936;28;45266;-74
2022/09/24 10:14:36;;;;;;;1.30;1.20;;;20.00;51.00;;;;;;5067614;28;45352;-75
2022/09/24 10:17:04;;;;;;;1.00;1.00;;;20.00;51.00;;;;;;5067245;28;45268;-74
2022/09/24 10:19:32;;;;;;;1.23;1.13;;;20.00;51.00;;;;;;5052671;28;45371;-73
2022/09/24 10:21:58;;;;;;;1.10;1.10;;;20.00;51.00;;;;;;5067729;28;45416;-75
2022/09/24 10:24:28;;;;;;;1.40;1.30;;;20.10;51.00;;;;;;5067260;28;45485;-74
2022/09/24 10:26:55;;;;;;;12.65;1.80;;;20.10;50.80;;;;;;5057893;28;45407;-73
2022/09/24 10:32:14;;;;;;;26.23;3.20;;;20.20;52.70;;;;;;5049410;28;45350;-73
2022/09/24 10:34:41;;;;;;;4.35;2.50;;;20.20;53.10;;;;;;5065845;28;45361;-73
2022/09/24 10:37:13;;;;;;;11.52;2.88;;;20.30;53.80;;;;;;5075655;28;45543;-75
2022/09/24 10:39:40;;;;;;;14.25;3.35;;;20.30;53.70;;;;;;5051130;28;45324;-77
2022/09/24 10:42:22;;;;;;;11.25;3.90;;;20.30;54.20;;;;;;5068559;28;45428;-74
2022/09/24 10:44:50;;;;;;;10.60;3.05;;;20.30;53.50;;;;;;5068458;28;45334;-77
2022/09/24 10:47:24;;;;;;;19.00;4.25;;;20.40;53.60;;;;;;5051519;28;45555;-75
2022/09/24 10:50:01;;;;;;;21.92;3.47;;;20.40;53.90;;;;;;5062721;28;46358;-75
2022/09/24 10:52:40;;;;;;;15.35;3.65;;;20.50;54.10;;;;;;5058230;28;45459;-78
2022/09/24 10:55:14;;;;;;;11.57;3.55;;;20.50;54.30;;;;;;5068014;28;45341;-77
2022/09/24 10:57:44;;;;;;;8.35;3.20;;;20.40;54.70;;;;;;5049179;28;45333;-79
2022/09/24 11:00:13;;;;;;;9.43;3.20;;;20.50;54.90;;;;;;5062075;28;46593;-80
2022/09/24 11:02:53;;;;;;;7.13;3.30;;;20.50;54.90;;;;;;5047372;28;45244;-75
2022/09/24 11:05:21;;;;;;;16.67;3.75;;;20.50;55.10;;;;;;5052084;28;45412;-75
2022/09/24 11:08:01;;;;;;;13.60;4.28;;;20.50;55.10;;;;;;5048238;28;45333;-74
2022/09/24 11:10:38;;;;;;;11.23;3.47;;;20.50;54.90;;;;;;5057487;28;46542;-75
2022/09/24 11:13:10;;;;;;;19.02;4.07;;;20.60;55.20;;;;;;5073908;28;45325;-81
2022/09/24 11:15:57;;;;;;;13.40;4.05;;;20.60;55.30;;;;;;5067614;28;45121;-74
2022/09/24 11:18:35;;;;;;;18.77;5.40;;;20.70;54.80;;;;;;5067871;28;45264;-73
2022/09/24 11:21:07;;;;;;;12.90;5.35;;;20.80;54.50;;;;;;5050817;28;45484;-74
2022/09/24 11:23:44;;;;;;;15.05;4.88;;;20.90;54.30;;;;;;5061197;28;45275;-75
2022/09/24 11:26:16;;;;;;;8.55;4.30;;;21.00;54.20;;;;;;5047294;28;45397;-76
2022/09/24 11:29:00;;;;;;;9.23;4.20;;;21.00;54.90;;;;;;5062562;28;45351;-73
2022/09/24 11:31:31;;;;;;;13.15;4.25;;;21.10;53.90;;;;;;5052186;28;45143;-74
2022/09/24 11:34:19;;;;;;;7.18;3.60;;;21.30;53.80;;;;;;5063529;28;45540;-73
2022/09/24 11:36:57;;;;;;;10.43;3.58;;;21.40;53.80;;;;;;5064051;28;45198;-72
2022/09/24 11:39:33;;;;;;;13.20;4.22;;;21.50;53.30;;;;;;5051700;28;45178;-73
2022/09/24 11:42:03;;;;;;;7.13;3.70;;;21.60;53.40;;;;;;5066699;28;46371;-74
2022/09/24 11:45:03;;;;;;;5.53;3.45;;;21.60;53.20;;;;;;5060551;28;45194;-74
2022/09/24 11:47:41;;;;;;;11.25;4.40;;;21.60;52.90;;;;;;5030200;28;45501;-74
2022/09/24 11:50:19;;;;;;;8.73;4.78;;;21.60;53.20;;;;;;5055455;28;45394;-74
2022/09/24 11:52:48;;;;;;;10.57;4.13;;;21.70;52.70;;;;;;5066399;28;45329;-73
2022/09/24 11:55:16;;;;;;;11.63;5.13;;;21.80;52.80;;;;;;5054585;28;45213;-74
2022/09/24 11:57:44;;;;;;;11.52;4.70;;;21.80;52.20;;;;;;5055451;28;45383;-74
2022/09/24 12:00:13;;;;;;;10.35;5.07;;;22.00;51.90;;;;;;5065782;28;45340;-73
2022/09/24 12:02:41;;;;;;;11.32;5.10;;;22.00;52.00;;;;;;5066742;28;46665;-74
2022/09/24 12:05:09;;;;;;;7.55;4.75;;;22.10;51.80;;;;;;5066835;28;45357;-71
2022/09/24 12:07:39;;;;;;;13.63;5.78;;;22.20;51.70;;;;;;5066685;28;45231;-71
2022/09/24 12:10:19;;;;;;;19.48;8.98;;;22.20;51.50;;;;;;5068244;28;45558;-72
2022/09/24 12:12:46;;;;;;;21.80;8.93;;;22.20;51.50;;;;;;5086684;28;45577;-71
2022/09/24 12:15:17;;;;;;;27.00;10.25;;;22.30;51.80;;;;;;5087127;28;45119;-71
2022/09/24 12:17:46;;;;;;;21.42;9.43;;;22.40;52.30;;;;;;5076530;28;45518;-71
2022/09/24 12:20:19;;;;;;;23.85;10.35;;;22.40;51.50;;;;;;5066872;28;45409;-72
2022/09/24 12:22:47;;;;;;;17.05;8.65;;;22.50;51.60;;;;;;5066647;28;45277;-72
2022/09/24 12:25:14;;;;;;;21.50;8.65;;;22.60;52.10;;;;;;5066664;28;45227;-72
2022/09/24 12:27:41;;;;;;;19.45;8.82;;;22.60;51.10;;;;;;5066652;28;45257;-72
2022/09/24 12:33:22;;;;;;;14.90;7.32;;;22.70;51.30;;;;;;5043936;28;45255;-72
2022/09/24 12:36:00;;;;;;;15.27;7.00;;;22.70;51.50;;;;;;5066407;28;45225;-75
2022/09/24 12:38:30;;;;;;;26.63;7.30;;;22.80;51.70;;;;;;5071572;28;45462;-72
2022/09/24 12:41:21;;;;;;;22.58;7.03;;;22.90;52.20;;;;;;5066345;28;45462;-73
2022/09/24 12:43:51;;;;;;;11.45;4.03;;;23.00;52.60;;;;;;5066437;28;46740;-73
2022/09/24 12:46:20;;;;;;;5.82;4.30;;;22.90;52.70;;;;;;5066581;28;45342;-73
2022/09/24 12:48:48;;;;;;;4.95;3.05;;;22.80;52.50;;;;;;5066458;28;45198;-73
2022/09/24 12:51:14;;;;;;;5.05;2.92;;;22.80;52.10;;;;;;5066781;28;45243;-73
2022/09/24 12:53:43;;;;;;;3.63;2.40;;;22.80;52.00;;;;;;5066269;28;46560;-73
2022/09/24 12:56:10;;;;;;;3.03;2.25;;;22.70;51.80;;;;;;5069421;28;45284;-73
2022/09/24 12:58:38;;;;;;;8.02;2.40;;;22.60;51.80;;;;;;5070182;28;45202;-76
2022/09/24 13:01:11;;;;;;;3.95;2.10;;;22.60;51.80;;;;;;5070315;28;45401;-72
2022/09/24 13:03:39;;;;;;;2.88;1.60;;;22.50;51.60;;;;;;5069832;28;47005;-72
2022/09/24 13:06:21;;;;;;;8.30;1.80;;;22.50;51.70;;;;;;5063283;28;45499;-72
2022/09/24 13:08:50;;;;;;;1.88;1.70;;;22.40;52.00;;;;;;5062594;28;45289;-73